sensor_id;sensor_type;location;lat;lon;timestamp;pressure;altitude;pressure_sealevel;temperature;humidity
9110;BME280;4590;51.462;6.692;2022-08-19T00:00:16;101077.44;;;22.95;58.46
9110;BME280;4590;51.462;6.692;2022-08-19T00:02:43;101075.81;;;22.94;59.06
9110;BME280;4590;51.462;6.692;2022-08-19T00:05:10;101078.19;;;22.92;58.76
9110;BME280;4590;51.462;6.692;2022-08-19T00:07:36;101081.38;;;22.91;58.74
9110;BME280;4590;51.462;6.692;2022-08-19T00:10:04;101080.56;;;22.90;59.07
9110;BME280;4590;51.462;6.692;2022-08-19T00:12:29;101074.91;;;22.87;59.24
9110;BME280;4590;51.462;6.692;2022-08-19T00:14:55;101079.56;;;22.75;60.14
9110;BME280;4590;51.462;6.692;2022-08-19T00:17:21;101090.09;;;22.82;58.85
9110;BME280;4590;51.462;6.692;2022-08-19T00:19:46;101086.06;;;22.80;58.84
9110;BME280;4590;51.462;6.692;2022-08-19T00:22:11;101093.47;;;22.68;60.10
9110;BME280;4590;51.462;6.692;2022-08-19T00:24:37;101089.16;;;22.74;58.98
9110;BME280;4590;51.462;6.692;2022-08-19T00:27:04;101095.53;;;22.71;59.46
9110;BME280;4590;51.462;6.692;2022-08-19T00:29:29;101078.94;;;22.59;60.46
9110;BME280;4590;51.462;6.692;2022-08-19T00:31:55;101085.84;;;22.65;59.48
9110;BME280;4590;51.462;6.692;2022-08-19T00:34:23;101084.22;;;22.64;59.53
9110;BME280;4590;51.462;6.692;2022-08-19T00:36:48;101085.63;;;22.51;61.01
9110;BME280;4590;51.462;6.692;2022-08-19T00:39:15;101065.28;;;22.58;59.97
9110;BME280;4590;51.462;6.692;2022-08-19T00:41:42;101076.88;;;22.56;60.14
9110;BME280;4590;51.462;6.692;2022-08-19T00:44:12;101066.41;;;22.53;60.39
9110;BME280;4590;51.462;6.692;2022-08-19T00:46:40;101066.03;;;22.55;60.59
9110;BME280;4590;51.462;6.692;2022-08-19T00:49:13;101074.41;;;22.51;60.63
9110;BME280;4590;51.462;6.692;2022-08-19T00:51:41;101071.22;;;22.53;60.97
9110;BME280;4590;51.462;6.692;2022-08-19T00:54:07;101065.97;;;22.51;60.94
9110;BME280;4590;51.462;6.692;2022-08-19T00:56:34;101070.81;;;22.51;61.06
9110;BME280;4590;51.462;6.692;2022-08-19T00:59:01;101072.00;;;22.50;60.93
9110;BME280;4590;51.462;6.692;2022-08-19T01:01:27;101072.38;;;22.48;61.15
9110;BME280;4590;51.462;6.692;2022-08-19T01:03:52;101071.84;;;22.39;62.31
9110;BME280;4590;51.462;6.692;2022-08-19T01:06:17;101070.31;;;22.45;61.04
9110;BME280;4590;51.462;6.692;2022-08-19T01:08:43;101063.78;;;22.34;62.15
9110;BME280;4590;51.462;6.692;2022-08-19T01:11:08;101062.22;;;22.40;61.10
9110;BME280;4590;51.462;6.692;2022-08-19T01:13:33;101062.91;;;22.30;62.50
9110;BME280;4590;51.462;6.692;2022-08-19T01:16:03;101066.97;;;22.36;60.98
9110;BME280;4590;51.462;6.692;2022-08-19T01:18:30;101061.38;;;22.36;61.08
9110;BME280;4590;51.462;6.692;2022-08-19T01:21:01;101066.56;;;22.34;61.10
9110;BME280;4590;51.462;6.692;2022-08-19T01:23:27;101078.97;;;22.33;61.56
9110;BME280;4590;51.462;6.692;2022-08-19T01:26:12;101072.56;;;22.32;61.39
9110;BME280;4590;51.462;6.692;2022-08-19T01:28:39;101074.13;;;22.30;61.45
9110;BME280;4590;51.462;6.692;2022-08-19T01:31:04;101074.75;;;22.20;62.35
9110;BME280;4590;51.462;6.692;2022-08-19T01:33:30;101079.66;;;22.26;61.11
9110;BME280;4590;51.462;6.692;2022-08-19T01:36:21;101071.09;;;22.16;62.44
9110;BME280;4590;51.462;6.692;2022-08-19T01:38:43;101077.97;;;22.22;61.19
9110;BME280;4590;51.462;6.692;2022-08-19T01:41:10;101069.13;;;22.20;61.32
9110;BME280;4590;51.462;6.692;2022-08-19T01:43:36;101070.72;;;22.17;61.47
9110;BME280;4590;51.462;6.692;2022-08-19T01:46:02;101072.97;;;22.08;62.31
9110;BME280;4590;51.462;6.692;2022-08-19T01:48:33;101076.63;;;22.12;61.27
9110;BME280;4590;51.462;6.692;2022-08-19T01:50:58;101069.41;;;22.11;61.27
9110;BME280;4590;51.462;6.692;2022-08-19T01:53:23;101076.84;;;22.00;62.84
9110;BME280;4590;51.462;6.692;2022-08-19T01:55:48;101071.34;;;22.07;61.68
9110;BME280;4590;51.462;6.692;2022-08-19T01:58:19;101066.38;;;21.97;62.96
9110;BME280;4590;51.462;6.692;2022-08-19T02:00:46;101069.69;;;22.02;61.64
9110;BME280;4590;51.462;6.692;2022-08-19T02:03:11;101073.91;;;21.93;62.81
9110;BME280;4590;51.462;6.692;2022-08-19T02:05:37;101074.41;;;21.98;61.82
9110;BME280;4590;51.462;6.692;2022-08-19T02:08:04;101069.97;;;21.97;61.88
9110;BME280;4590;51.462;6.692;2022-08-19T02:10:29;101071.16;;;21.96;61.93
9110;BME280;4590;51.462;6.692;2022-08-19T02:12:54;101069.00;;;21.86;63.50
9110;BME280;4590;51.462;6.692;2022-08-19T02:15:20;101059.06;;;21.92;61.91
9110;BME280;4590;51.462;6.692;2022-08-19T02:17:47;101070.66;;;21.91;61.78
9110;BME280;4590;51.462;6.692;2022-08-19T02:20:14;101067.84;;;21.91;62.28
9110;BME280;4590;51.462;6.692;2022-08-19T02:22:39;101071.28;;;21.81;63.47
9110;BME280;4590;51.462;6.692;2022-08-19T02:25:06;101065.25;;;21.79;63.57
9110;BME280;4590;51.462;6.692;2022-08-19T02:27:32;101074.16;;;21.84;62.11
9110;BME280;4590;51.462;6.692;2022-08-19T02:29:59;101078.16;;;21.83;62.38
9110;BME280;4590;51.462;6.692;2022-08-19T02:32:24;101073.72;;;21.82;62.40
9110;BME280;4590;51.462;6.692;2022-08-19T02:34:49;101082.78;;;21.72;63.93
9110;BME280;4590;51.462;6.692;2022-08-19T02:37:14;101076.47;;;21.79;62.59
9110;BME280;4590;51.462;6.692;2022-08-19T02:39:59;101086.84;;;21.78;62.66
9110;BME280;4590;51.462;6.692;2022-08-19T02:42:24;101077.63;;;21.78;62.78
9110;BME280;4590;51.462;6.692;2022-08-19T02:44:49;101084.31;;;21.69;64.17
9110;BME280;4590;51.462;6.692;2022-08-19T02:47:15;101075.59;;;21.75;62.74
9110;BME280;4590;51.462;6.692;2022-08-19T02:49:40;101074.22;;;21.65;64.24
9110;BME280;4590;51.462;6.692;2022-08-19T02:52:06;101079.16;;;21.72;62.60
9110;BME280;4590;51.462;6.692;2022-08-19T02:54:31;101071.94;;;21.70;62.88
9110;BME280;4590;51.462;6.692;2022-08-19T02:56:56;101077.78;;;21.62;64.35
9110;BME280;4590;51.462;6.692;2022-08-19T02:59:22;101081.88;;;21.68;62.98
9110;BME280;4590;51.462;6.692;2022-08-19T03:01:47;101086.69;;;21.67;63.08
9110;BME280;4590;51.462;6.692;2022-08-19T03:04:14;101086.09;;;21.58;64.38
9110;BME280;4590;51.462;6.692;2022-08-19T03:06:43;101084.63;;;21.64;63.06
9110;BME280;4590;51.462;6.692;2022-08-19T03:09:08;101092.22;;;21.64;63.13
9110;BME280;4590;51.462;6.692;2022-08-19T03:11:34;101089.41;;;21.64;63.23
9110;BME280;4590;51.462;6.692;2022-08-19T03:13:59;101084.44;;;21.54;64.23
9110;BME280;4590;51.462;6.692;2022-08-19T03:16:27;101095.38;;;21.62;63.45
9110;BME280;4590;51.462;6.692;2022-08-19T03:18:55;101099.38;;;21.61;63.42
9110;BME280;4590;51.462;6.692;2022-08-19T03:21:23;101088.53;;;21.60;63.49
9110;BME280;4590;51.462;6.692;2022-08-19T03:23:49;101086.53;;;21.60;63.94
9110;BME280;4590;51.462;6.692;2022-08-19T03:26:15;101072.53;;;21.60;63.63
9110;BME280;4590;51.462;6.692;2022-08-19T03:28:41;101080.13;;;21.60;63.52
9110;BME280;4590;51.462;6.692;2022-08-19T03:31:10;101085.72;;;21.60;63.60
9110;BME280;4590;51.462;6.692;2022-08-19T03:33:36;101080.50;;;21.58;63.74
9110;BME280;4590;51.462;6.692;2022-08-19T03:36:10;101083.63;;;21.53;63.87
9110;BME280;4590;51.462;6.692;2022-08-19T03:38:43;101070.88;;;21.56;63.90
9110;BME280;4590;51.462;6.692;2022-08-19T03:41:13;101081.63;;;21.54;63.83
9110;BME280;4590;51.462;6.692;2022-08-19T03:43:41;101074.84;;;21.55;63.80
9110;BME280;4590;51.462;6.692;2022-08-19T03:46:09;101081.63;;;21.54;63.83
9110;BME280;4590;51.462;6.692;2022-08-19T03:48:36;101081.63;;;21.54;63.89
9110;BME280;4590;51.462;6.692;2022-08-19T03:51:02;101088.41;;;21.53;63.74
9110;BME280;4590;51.462;6.692;2022-08-19T03:53:28;101086.00;;;21.51;63.78
9110;BME280;4590;51.462;6.692;2022-08-19T03:55:55;101083.56;;;21.50;63.74
9110;BME280;4590;51.462;6.692;2022-08-19T03:58:21;101077.16;;;21.49;63.68
9110;BME280;4590;51.462;6.692;2022-08-19T04:00:46;101080.31;;;21.48;63.72
9110;BME280;4590;51.462;6.692;2022-08-19T04:03:11;101079.31;;;21.37;64.21
9110;BME280;4590;51.462;6.692;2022-08-19T04:05:36;101084.59;;;21.42;63.31
9110;BME280;4590;51.462;6.692;2022-08-19T04:08:02;101087.19;;;21.31;64.49
9110;BME280;4590;51.462;6.692;2022-08-19T04:10:28;101088.53;;;21.37;63.36
9110;BME280;4590;51.462;6.692;2022-08-19T04:12:53;101087.28;;;21.34;63.65
9110;BME280;4590;51.462;6.692;2022-08-19T04:15:19;101090.44;;;21.33;63.67
9110;BME280;4590;51.462;6.692;2022-08-19T04:17:44;101089.19;;;21.30;63.79
9110;BME280;4590;51.462;6.692;2022-08-19T04:20:10;101085.56;;;21.30;63.56
9110;BME280;4590;51.462;6.692;2022-08-19T04:22:35;101093.78;;;21.19;64.41
9110;BME280;4590;51.462;6.692;2022-08-19T04:25:00;101079.50;;;21.24;63.59
9110;BME280;4590;51.462;6.692;2022-08-19T04:27:25;101076.81;;;21.12;64.36
9110;BME280;4590;51.462;6.692;2022-08-19T04:29:51;101089.31;;;21.18;63.50
9110;BME280;4590;51.462;6.692;2022-08-19T04:32:17;101081.28;;;21.17;63.53
9110;BME280;4590;51.462;6.692;2022-08-19T04:34:42;101072.34;;;21.08;64.41
9110;BME280;4590;51.462;6.692;2022-08-19T04:37:08;101072.47;;;21.15;63.67
9110;BME280;4590;51.462;6.692;2022-08-19T04:39:38;101069.22;;;21.13;63.63
9110;BME280;4590;51.462;6.692;2022-08-19T04:42:22;101076.00;;;21.12;63.94
9110;BME280;4590;51.462;6.692;2022-08-19T04:45:09;101084.75;;;21.10;63.76
9110;BME280;4590;51.462;6.692;2022-08-19T04:47:36;101091.97;;;21.11;63.98
9110;BME280;4590;51.462;6.692;2022-08-19T04:50:02;101093.59;;;21.12;64.19
9110;BME280;4590;51.462;6.692;2022-08-19T04:52:28;101097.19;;;21.13;64.21
9110;BME280;4590;51.462;6.692;2022-08-19T04:54:53;101107.22;;;21.14;63.93
9110;BME280;4590;51.462;6.692;2022-08-19T04:57:20;101114.44;;;21.15;64.29
9110;BME280;4590;51.462;6.692;2022-08-19T04:59:46;101108.84;;;21.15;64.00
9110;BME280;4590;51.462;6.692;2022-08-19T05:02:11;101116.41;;;21.14;64.26
9110;BME280;4590;51.462;6.692;2022-08-19T05:04:37;101109.66;;;21.15;64.34
9110;BME280;4590;51.462;6.692;2022-08-19T05:07:04;101115.25;;;21.15;64.29
9110;BME280;4590;51.462;6.692;2022-08-19T05:09:30;101115.25;;;21.15;64.68
9110;BME280;4590;51.462;6.692;2022-08-19T05:11:55;101128.28;;;21.08;65.34
9110;BME280;4590;51.462;6.692;2022-08-19T05:14:20;101135.28;;;21.17;64.47
9110;BME280;4590;51.462;6.692;2022-08-19T05:16:47;101136.91;;;21.18;64.51
9110;BME280;4590;51.462;6.692;2022-08-19T05:19:12;101129.97;;;21.12;65.58
9110;BME280;4590;51.462;6.692;2022-08-19T05:21:56;101135.03;;;21.22;64.47
9110;BME280;4590;51.462;6.692;2022-08-19T05:24:40;101149.06;;;21.26;64.76
9110;BME280;4590;51.462;6.692;2022-08-19T05:27:05;101148.69;;;21.27;64.46
9110;BME280;4590;51.462;6.692;2022-08-19T05:29:32;101153.13;;;21.28;64.52
9110;BME280;4590;51.462;6.692;2022-08-19T05:31:59;101153.56;;;21.30;64.50
9110;BME280;4590;51.462;6.692;2022-08-19T05:34:25;101155.63;;;21.33;64.58
9110;BME280;4590;51.462;6.692;2022-08-19T05:36:54;101145.69;;;21.36;64.74
9110;BME280;4590;51.462;6.692;2022-08-19T05:39:22;101148.56;;;21.40;64.94
9110;BME280;4590;51.462;6.692;2022-08-19T05:41:53;101145.81;;;21.43;64.75
9110;BME280;4590;51.462;6.692;2022-08-19T05:44:19;101146.69;;;21.47;64.62
9110;BME280;4590;51.462;6.692;2022-08-19T05:46:47;101133.59;;;21.51;64.61
9110;BME280;4590;51.462;6.692;2022-08-19T05:49:13;101137.28;;;21.55;64.83
9110;BME280;4590;51.462;6.692;2022-08-19T05:51:39;101142.09;;;21.58;64.62
9110;BME280;4590;51.462;6.692;2022-08-19T05:54:05;101140.00;;;21.52;65.15
9110;BME280;4590;51.462;6.692;2022-08-19T05:56:31;101143.34;;;21.61;64.34
9110;BME280;4590;51.462;6.692;2022-08-19T05:58:57;101143.00;;;21.62;64.22
9110;BME280;4590;51.462;6.692;2022-08-19T06:01:25;101147.03;;;21.65;64.43
9110;BME280;4590;51.462;6.692;2022-08-19T06:03:50;101150.28;;;21.67;64.11
9110;BME280;4590;51.462;6.692;2022-08-19T06:06:16;101148.94;;;21.61;64.73
9110;BME280;4590;51.462;6.692;2022-08-19T06:08:41;101143.94;;;21.70;63.86
9110;BME280;4590;51.462;6.692;2022-08-19T06:13:45;101145.25;;;21.76;63.78
9110;BME280;4590;51.462;6.692;2022-08-19T06:16:13;101148.91;;;21.80;63.83
9110;BME280;4590;51.462;6.692;2022-08-19T06:18:44;101144.28;;;21.88;63.77
9110;BME280;4590;51.462;6.692;2022-08-19T06:21:10;101137.41;;;21.85;64.08
9110;BME280;4590;51.462;6.692;2022-08-19T06:23:35;101135.38;;;22.05;63.82
9110;BME280;4590;51.462;6.692;2022-08-19T06:26:00;101138.94;;;22.02;63.89
9110;BME280;4590;51.462;6.692;2022-08-19T06:28:25;101141.25;;;22.23;63.85
9110;BME280;4590;51.462;6.692;2022-08-19T06:30:51;101145.69;;;22.24;63.56
9110;BME280;4590;51.462;6.692;2022-08-19T06:33:16;101149.72;;;22.49;63.41
9110;BME280;4590;51.462;6.692;2022-08-19T06:35:41;101136.91;;;22.52;62.78
9110;BME280;4590;51.462;6.692;2022-08-19T06:38:07;101145.25;;;22.74;63.25
9110;BME280;4590;51.462;6.692;2022-08-19T06:40:34;101135.13;;;22.93;62.75
9110;BME280;4590;51.462;6.692;2022-08-19T06:43:00;101135.75;;;23.09;62.39
9110;BME280;4590;51.462;6.692;2022-08-19T06:45:27;101142.38;;;23.27;62.22
9110;BME280;4590;51.462;6.692;2022-08-19T06:47:52;101146.00;;;23.31;60.75
9110;BME280;4590;51.462;6.692;2022-08-19T06:50:21;101149.59;;;23.58;61.75
9110;BME280;4590;51.462;6.692;2022-08-19T06:52:47;101148.09;;;23.71;61.11
9110;BME280;4590;51.462;6.692;2022-08-19T06:55:12;101151.06;;;23.86;61.07
9110;BME280;4590;51.462;6.692;2022-08-19T06:57:38;101148.38;;;24.00;60.26
9110;BME280;4590;51.462;6.692;2022-08-19T07:00:05;101146.06;;;24.12;60.04
9110;BME280;4590;51.462;6.692;2022-08-19T07:02:31;101144.63;;;24.29;59.40
9110;BME280;4590;51.462;6.692;2022-08-19T07:04:57;101140.34;;;24.46;59.55
9110;BME280;4590;51.462;6.692;2022-08-19T07:07:23;101154.94;;;24.66;59.29
9110;BME280;4590;51.462;6.692;2022-08-19T07:09:50;101153.84;;;24.88;58.96
9110;BME280;4590;51.462;6.692;2022-08-19T07:12:15;101149.97;;;25.10;58.23
9110;BME280;4590;51.462;6.692;2022-08-19T07:14:41;101161.34;;;25.32;57.44
9110;BME280;4590;51.462;6.692;2022-08-19T07:17:09;101160.19;;;25.54;57.20
9110;BME280;4590;51.462;6.692;2022-08-19T07:19:36;101164.69;;;25.73;56.89
9110;BME280;4590;51.462;6.692;2022-08-19T07:22:03;101165.53;;;25.95;55.92
9110;BME280;4590;51.462;6.692;2022-08-19T07:24:30;101163.94;;;26.15;55.77
9110;BME280;4590;51.462;6.692;2022-08-19T07:26:58;101174.44;;;26.36;55.22
9110;BME280;4590;51.462;6.692;2022-08-19T07:29:27;101161.13;;;26.54;54.44
9110;BME280;4590;51.462;6.692;2022-08-19T07:31:53;101163.91;;;26.68;53.64
9110;BME280;4590;51.462;6.692;2022-08-19T07:34:22;101180.00;;;26.89;53.35
9110;BME280;4590;51.462;6.692;2022-08-19T07:36:47;101170.72;;;27.06;53.00
9110;BME280;4590;51.462;6.692;2022-08-19T07:39:20;101181.50;;;27.25;52.07
9110;BME280;4590;51.462;6.692;2022-08-19T07:41:46;101176.56;;;27.51;51.96
9110;BME280;4590;51.462;6.692;2022-08-19T07:44:13;101179.34;;;27.69;51.58
9110;BME280;4590;51.462;6.692;2022-08-19T07:46:44;101190.09;;;27.88;50.74
9110;BME280;4590;51.462;6.692;2022-08-19T07:49:10;101187.16;;;28.02;50.85
9110;BME280;4590;51.462;6.692;2022-08-19T07:51:42;101186.69;;;28.14;50.05
9110;BME280;4590;51.462;6.692;2022-08-19T07:54:07;101190.28;;;28.22;50.00
9110;BME280;4590;51.462;6.692;2022-08-19T07:56:32;101194.69;;;28.30;49.42
9110;BME280;4590;51.462;6.692;2022-08-19T07:58:58;101195.41;;;28.38;49.50
9110;BME280;4590;51.462;6.692;2022-08-19T08:01:25;101196.16;;;28.49;49.07
9110;BME280;4590;51.462;6.692;2022-08-19T08:03:54;101200.88;;;28.62;48.35
9110;BME280;4590;51.462;6.692;2022-08-19T08:06:38;101207.59;;;28.79;48.51
9110;BME280;4590;51.462;6.692;2022-08-19T08:09:25;101202.91;;;29.00;47.42
9110;BME280;4590;51.462;6.692;2022-08-19T08:11:54;101207.59;;;29.17;47.46
9110;BME280;4590;51.462;6.692;2022-08-19T08:14:26;101200.47;;;29.36;47.22
9110;BME280;4590;51.462;6.692;2022-08-19T08:16:52;101206.34;;;29.55;46.64
9110;BME280;4590;51.462;6.692;2022-08-19T08:19:20;101215.41;;;29.74;45.55
9110;BME280;4590;51.462;6.692;2022-08-19T08:21:47;101214.44;;;29.84;45.24
9110;BME280;4590;51.462;6.692;2022-08-19T08:24:13;101209.13;;;29.86;44.15
9110;BME280;4590;51.462;6.692;2022-08-19T08:26:39;101222.94;;;29.84;44.18
9110;BME280;4590;51.462;6.692;2022-08-19T08:29:04;101222.56;;;29.82;44.03
9110;BME280;4590;51.462;6.692;2022-08-19T08:31:32;101218.06;;;29.84;44.31
9110;BME280;4590;51.462;6.692;2022-08-19T08:33:59;101225.78;;;29.84;43.92
9110;BME280;4590;51.462;6.692;2022-08-19T08:36:24;101234.66;;;29.86;43.52
9110;BME280;4590;51.462;6.692;2022-08-19T08:38:50;101225.31;;;29.89;43.36
9110;BME280;4590;51.462;6.692;2022-08-19T08:41:37;101225.25;;;29.92;42.01
9110;BME280;4590;51.462;6.692;2022-08-19T08:44:04;101239.19;;;30.10;43.48
9110;BME280;4590;51.462;6.692;2022-08-19T08:46:44;101231.91;;;30.09;43.06
9110;BME280;4590;51.462;6.692;2022-08-19T08:49:26;101224.97;;;30.14;41.16
9110;BME280;4590;51.462;6.692;2022-08-19T08:52:10;101223.31;;;30.16;42.19
9110;BME280;4590;51.462;6.692;2022-08-19T08:54:42;101222.75;;;30.25;42.11
9110;BME280;4590;51.462;6.692;2022-08-19T08:57:12;101225.44;;;30.35;42.14
9110;BME280;4590;51.462;6.692;2022-08-19T08:59:40;101219.63;;;30.43;41.64
9110;BME280;4590;51.462;6.692;2022-08-19T09:02:07;101217.84;;;30.52;41.32
9110;BME280;4590;51.462;6.692;2022-08-19T09:04:37;101218.97;;;30.58;40.39
9110;BME280;4590;51.462;6.692;2022-08-19T09:15:35;101216.28;;;30.94;39.90
9110;BME280;4590;51.462;6.692;2022-08-19T09:18:03;101209.16;;;31.06;39.94
9110;BME280;4590;51.462;6.692;2022-08-19T09:20:29;101210.28;;;31.12;40.08
9110;BME280;4590;51.462;6.692;2022-08-19T09:22:56;101224.50;;;31.12;39.47
9110;BME280;4590;51.462;6.692;2022-08-19T09:25:22;101211.03;;;31.16;39.73
9110;BME280;4590;51.462;6.692;2022-08-19T09:27:49;101221.06;;;31.21;39.40
9110;BME280;4590;51.462;6.692;2022-08-19T09:30:24;101221.94;;;31.18;38.54
9110;BME280;4590;51.462;6.692;2022-08-19T09:32:50;101219.41;;;31.23;39.02
9110;BME280;4590;51.462;6.692;2022-08-19T09:35:18;101221.06;;;31.21;38.72
9110;BME280;4590;51.462;6.692;2022-08-19T09:37:43;101218.22;;;31.21;38.51
9110;BME280;4590;51.462;6.692;2022-08-19T09:40:09;101218.22;;;31.21;38.61
9110;BME280;4590;51.462;6.692;2022-08-19T09:42:35;101214.66;;;31.17;38.79
9110;BME280;4590;51.462;6.692;2022-08-19T09:45:00;101220.34;;;31.17;38.86
9110;BME280;4590;51.462;6.692;2022-08-19T09:47:26;101216.78;;;31.13;38.85
9110;BME280;4590;51.462;6.692;2022-08-19T09:49:51;101217.56;;;31.13;38.60
9110;BME280;4590;51.462;6.692;2022-08-19T09:52:17;101206.56;;;31.15;38.52
9110;BME280;4590;51.462;6.692;2022-08-19T09:54:43;101228.00;;;31.20;38.27
9110;BME280;4590;51.462;6.692;2022-08-19T09:57:08;101206.06;;;31.20;37.97
9110;BME280;4590;51.462;6.692;2022-08-19T09:59:34;101210.38;;;31.28;37.85
9110;BME280;4590;51.462;6.692;2022-08-19T10:01:59;101212.34;;;31.31;38.41
9110;BME280;4590;51.462;6.692;2022-08-19T10:04:25;101209.63;;;31.44;38.06
9110;BME280;4590;51.462;6.692;2022-08-19T10:07:10;101215.69;;;31.46;37.95
9110;BME280;4590;51.462;6.692;2022-08-19T10:09:35;101207.50;;;31.48;37.76
9110;BME280;4590;51.462;6.692;2022-08-19T10:12:02;101219.22;;;31.50;37.56
9110;BME280;4590;51.462;6.692;2022-08-19T10:14:28;101205.75;;;31.54;37.38
9110;BME280;4590;51.462;6.692;2022-08-19T10:16:54;101208.59;;;31.54;37.67
9110;BME280;4590;51.462;6.692;2022-08-19T10:19:19;101205.00;;;31.50;37.55
9110;BME280;4590;51.462;6.692;2022-08-19T10:21:46;101205.69;;;31.38;37.26
9110;BME280;4590;51.462;6.692;2022-08-19T10:24:11;101206.13;;;31.36;37.68
9110;BME280;4590;51.462;6.692;2022-08-19T10:26:39;101197.59;;;31.36;37.68
9110;BME280;4590;51.462;6.692;2022-08-19T10:29:07;101199.25;;;31.34;37.41
9110;BME280;4590;51.462;6.692;2022-08-19T10:31:33;101195.91;;;31.39;37.40
9110;BME280;4590;51.462;6.692;2022-08-19T10:34:00;101183.66;;;31.42;37.10
9110;BME280;4590;51.462;6.692;2022-08-19T10:36:29;101187.69;;;31.45;36.73
9110;BME280;4590;51.462;6.692;2022-08-19T10:38:57;101189.66;;;31.48;37.04
9110;BME280;4590;51.462;6.692;2022-08-19T10:41:26;101188.84;;;31.47;36.86
9110;BME280;4590;51.462;6.692;2022-08-19T10:43:53;101175.50;;;31.44;36.66
9110;BME280;4590;51.462;6.692;2022-08-19T10:46:20;101179.72;;;31.36;36.21
9110;BME280;4590;51.462;6.692;2022-08-19T10:48:46;101186.81;;;31.28;36.47
9110;BME280;4590;51.462;6.692;2022-08-19T10:51:11;101185.28;;;31.23;36.29
9110;BME280;4590;51.462;6.692;2022-08-19T10:53:56;101182.72;;;31.29;36.46
9110;BME280;4590;51.462;6.692;2022-08-19T10:56:23;101182.56;;;31.36;36.26
9110;BME280;4590;51.462;6.692;2022-08-19T10:59:07;101181.19;;;31.44;36.59
9110;BME280;4590;51.462;6.692;2022-08-19T11:01:33;101175.75;;;31.50;36.83
9110;BME280;4590;51.462;6.692;2022-08-19T11:04:00;101180.06;;;31.58;36.63
9110;BME280;4590;51.462;6.692;2022-08-19T11:06:26;101164.47;;;31.66;35.78
9110;BME280;4590;51.462;6.692;2022-08-19T11:08:53;101170.06;;;31.69;35.70
9110;BME280;4590;51.462;6.692;2022-08-19T11:11:20;101174.38;;;31.78;35.48
9110;BME280;4590;51.462;6.692;2022-08-19T11:13:46;101170.09;;;31.86;35.63
9110;BME280;4590;51.462;6.692;2022-08-19T11:16:19;101172.94;;;31.86;34.89
9110;BME280;4590;51.462;6.692;2022-08-19T11:18:57;101173.22;;;31.91;35.23
9110;BME280;4590;51.462;6.692;2022-08-19T11:21:28;101172.59;;;31.84;34.78
9110;BME280;4590;51.462;6.692;2022-08-19T11:23:58;101172.41;;;31.75;34.51
9110;BME280;4590;51.462;6.692;2022-08-19T11:26:23;101181.00;;;31.71;34.54
9110;BME280;4590;51.462;6.692;2022-08-19T11:28:49;101182.31;;;31.66;34.96
9110;BME280;4590;51.462;6.692;2022-08-19T11:31:22;101173.06;;;31.62;34.71
9110;BME280;4590;51.462;6.692;2022-08-19T11:33:48;101174.38;;;31.58;34.58
9110;BME280;4590;51.462;6.692;2022-08-19T11:36:18;101176.50;;;31.54;33.91
9110;BME280;4590;51.462;6.692;2022-08-19T11:38:45;101170.88;;;31.50;34.38
9110;BME280;4590;51.462;6.692;2022-08-19T11:41:13;101171.84;;;31.44;34.40
9110;BME280;4590;51.462;6.692;2022-08-19T11:43:39;101168.66;;;31.42;34.15
9110;BME280;4590;51.462;6.692;2022-08-19T11:46:06;101168.34;;;31.36;34.51
9110;BME280;4590;51.462;6.692;2022-08-19T11:48:32;101155.91;;;31.30;33.84
9110;BME280;4590;51.462;6.692;2022-08-19T11:50:58;101162.84;;;31.29;34.10
9110;BME280;4590;51.462;6.692;2022-08-19T11:53:24;101168.16;;;31.27;34.56
9110;BME280;4590;51.462;6.692;2022-08-19T11:55:52;101168.66;;;31.22;34.56
9110;BME280;4590;51.462;6.692;2022-08-19T11:58:21;101164.66;;;31.19;34.75
9110;BME280;4590;51.462;6.692;2022-08-19T12:00:47;101163.19;;;31.11;34.61
9110;BME280;4590;51.462;6.692;2022-08-19T12:03:13;101156.75;;;31.07;34.48
9110;BME280;4590;51.462;6.692;2022-08-19T12:05:40;101154.72;;;31.08;34.89
9110;BME280;4590;51.462;6.692;2022-08-19T12:08:05;101156.09;;;30.99;34.49
9110;BME280;4590;51.462;6.692;2022-08-19T12:10:32;101169.41;;;31.02;34.51
9110;BME280;4590;51.462;6.692;2022-08-19T12:12:57;101157.72;;;31.00;34.45
9110;BME280;4590;51.462;6.692;2022-08-19T12:15:22;101166.38;;;30.93;34.41
9110;BME280;4590;51.462;6.692;2022-08-19T12:17:48;101163.16;;;30.91;34.64
9110;BME280;4590;51.462;6.692;2022-08-19T12:20:13;101143.69;;;30.90;34.45
9110;BME280;4590;51.462;6.692;2022-08-19T12:22:41;101149.44;;;30.86;34.51
9110;BME280;4590;51.462;6.692;2022-08-19T12:25:07;101138.97;;;30.83;34.49
9110;BME280;4590;51.462;6.692;2022-08-19T12:27:33;101134.53;;;30.82;34.73
9110;BME280;4590;51.462;6.692;2022-08-19T12:30:01;101141.16;;;30.76;34.46
9110;BME280;4590;51.462;6.692;2022-08-19T12:32:26;101145.66;;;30.73;34.14
9110;BME280;4590;51.462;6.692;2022-08-19T12:34:52;101147.78;;;30.69;33.88
9110;BME280;4590;51.462;6.692;2022-08-19T12:37:17;101142.16;;;30.65;33.98
9110;BME280;4590;51.462;6.692;2022-08-19T12:39:43;101136.97;;;30.60;34.30
9110;BME280;4590;51.462;6.692;2022-08-19T12:42:10;101144.75;;;30.56;33.94
9110;BME280;4590;51.462;6.692;2022-08-19T12:44:38;101137.03;;;30.57;33.81
9110;BME280;4590;51.462;6.692;2022-08-19T12:47:05;101135.88;;;30.54;33.92
9110;BME280;4590;51.462;6.692;2022-08-19T12:49:30;101148.50;;;30.50;33.47
9110;BME280;4590;51.462;6.692;2022-08-19T12:51:58;101150.56;;;30.49;33.33
9110;BME280;4590;51.462;6.692;2022-08-19T12:54:23;101127.84;;;30.49;33.85
9110;BME280;4590;51.462;6.692;2022-08-19T12:56:49;101128.25;;;30.48;33.73
9110;BME280;4590;51.462;6.692;2022-08-19T12:59:17;101131.59;;;30.43;33.88
9110;BME280;4590;51.462;6.692;2022-08-19T13:01:49;101135.44;;;30.32;33.78
9110;BME280;4590;51.462;6.692;2022-08-19T13:04:15;101124.56;;;30.27;33.48
9110;BME280;4590;51.462;6.692;2022-08-19T13:06:41;101125.81;;;30.26;34.41
9110;BME280;4590;51.462;6.692;2022-08-19T13:09:07;101122.31;;;30.19;34.09
9110;BME280;4590;51.462;6.692;2022-08-19T13:11:33;101120.81;;;30.11;33.75
9110;BME280;4590;51.462;6.692;2022-08-19T13:14:00;101117.16;;;30.10;34.22
9110;BME280;4590;51.462;6.692;2022-08-19T13:16:25;101130.69;;;30.03;34.04
9110;BME280;4590;51.462;6.692;2022-08-19T13:18:53;101127.09;;;29.98;34.38
9110;BME280;4590;51.462;6.692;2022-08-19T13:21:20;101120.63;;;29.98;34.40